Time;durP1;ratioP1;P1;durP2;ratioP2;P2;SDS_P1;SDS_P2;PMS_P1;PMS_P2;Temp;Humidity;BMP_temperature;BMP_pressure;BME280_temperature;BME280_humidity;BME280_pressure;Samples;Min_cycle;Max_cycle;Signal;HPM_P1;HPM_P2
2022/10/10 08:38:12;;;;;;;;;30.00;28.75;;;;;;;;5084749;27;13612;-72
2022/10/10 08:40:43;;;;;;;;;26.25;22.00;;;;;;;;5093856;28;10951;-72
2022/10/10 08:43:15;;;;;;;;;37.75;34.50;;;;;;;;5097587;28;10799;-74
2022/10/10 08:45:41;;;;;;;;;45.75;36.25;;;;;;;;5107825;28;11247;-79
2022/10/10 08:48:09;;;;;;;;;46.00;37.25;;;;;;;;5107782;28;11581;-79
2022/10/10 08:50:57;;;;;;;;;28.75;26.25;;;;;;;;5107404;28;8803;-75
2022/10/10 08:53:22;;;;;;;;;22.50;22.50;;;;;;;;5104416;28;10493;-74
2022/10/10 08:55:47;;;;;;;;;25.50;24.25;;;;;;;;5106518;28;9988;-78
2022/10/10 08:58:19;;;;;;;;;21.00;18.00;;;;;;;;5096396;28;8815;-79
2022/10/10 09:00:51;;;;;;;;;15.75;15.75;;;;;;;;5106007;28;8795;-78
2022/10/10 09:03:26;;;;;;;;;21.00;18.67;;;;;;;;5107488;28;9416;-76
2022/10/10 09:05:51;;;;;;;;;19.00;17.00;;;;;;;;5107334;28;9193;-78
2022/10/10 09:08:22;;;;;;;;;17.67;16.67;;;;;;;;5107606;28;9010;-73
2022/10/10 09:11:01;;;;;;;;;19.67;17.00;;;;;;;;5085768;28;8845;-77
2022/10/10 09:13:26;;;;;;;;;16.33;16.33;;;;;;;;5085899;28;9289;-76
2022/10/10 09:16:00;;;;;;;;;20.67;17.00;;;;;;;;5085636;28;9231;-76
2022/10/10 09:18:40;;;;;;;;;22.33;20.67;;;;;;;;5086717;28;8802;-75
2022/10/10 09:21:06;;;;;;;;;24.00;18.50;;;;;;;;5092238;28;9275;-69
2022/10/10 09:23:34;;;;;;;;;22.75;21.25;;;;;;;;5096368;28;9546;-69
2022/10/10 09:25:59;;;;;;;;;22.25;20.50;;;;;;;;5085384;28;8833;-69
2022/10/10 09:28:34;;;;;;;;;20.75;18.00;;;;;;;;5097167;28;9692;-70
2022/10/10 09:31:00;;;;;;;;;23.00;18.67;;;;;;;;5104122;28;8950;-70
2022/10/10 09:33:45;;;;;;;;;19.67;18.67;;;;;;;;5106882;28;9386;-70
2022/10/10 09:36:17;;;;;;;;;21.33;19.00;;;;;;;;5100314;28;9304;-69
2022/10/10 09:38:48;;;;;;;;;18.00;18.00;;;;;;;;5103242;28;9443;-71
2022/10/10 09:41:19;;;;;;;;;18.00;18.00;;;;;;;;5106759;28;9207;-70
2022/10/10 09:43:44;;;;;;;;;18.67;18.33;;;;;;;;5089624;28;9021;-72
2022/10/10 09:46:10;;;;;;;;;19.33;19.33;;;;;;;;5094287;28;9049;-72
2022/10/10 09:48:37;;;;;;;;;22.33;21.33;;;;;;;;5088189;28;8798;-71
2022/10/10 09:51:04;;;;;;;;;21.00;19.67;;;;;;;;5087135;28;8819;-72
2022/10/10 09:53:29;;;;;;;;;19.00;18.67;;;;;;;;5087371;28;9179;-71
2022/10/10 09:55:55;;;;;;;;;22.67;22.00;;;;;;;;5077865;28;9352;-71
2022/10/10 09:58:30;;;;;;;;;18.33;17.67;;;;;;;;5072853;28;8833;-73
2022/10/10 10:01:09;;;;;;;;;21.25;19.75;;;;;;;;5080299;28;8897;-72
2022/10/10 10:03:34;;;;;;;;;21.25;20.00;;;;;;;;5079935;28;9836;-72
2022/10/10 10:06:00;;;;;;;;;20.75;19.25;;;;;;;;5077561;28;10567;-72
2022/10/10 10:08:29;;;;;;;;;23.25;20.25;;;;;;;;5082142;28;8788;-71
2022/10/10 10:10:57;;;;;;;;;23.00;21.25;;;;;;;;5081534;28;11542;-69
2022/10/10 10:13:24;;;;;;;;;20.75;20.00;;;;;;;;5080218;28;9996;-72
2022/10/10 10:15:54;;;;;;;;;23.25;21.75;;;;;;;;5079572;28;9844;-71
2022/10/10 10:18:26;;;;;;;;;23.25;20.75;;;;;;;;5078759;28;9998;-74
2022/10/10 10:21:00;;;;;;;;;25.25;24.25;;;;;;;;5077328;28;9840;-73
2022/10/10 10:23:33;;;;;;;;;23.00;21.75;;;;;;;;5075937;28;9976;-73
2022/10/10 10:26:13;;;;;;;;;21.50;19.50;;;;;;;;5077213;28;10143;-76
2022/10/10 10:28:39;;;;;;;;;25.00;23.00;;;;;;;;5081795;28;10290;-75
2022/10/10 10:31:05;;;;;;;;;20.75;20.25;;;;;;;;5077364;28;10227;-73
2022/10/10 10:33:39;;;;;;;;;25.00;21.50;;;;;;;;5082632;28;8798;-80
2022/10/10 10:36:13;;;;;;;;;27.50;27.00;;;;;;;;5072937;28;8873;-74
2022/10/10 10:38:45;;;;;;;;;22.00;20.00;;;;;;;;5080522;28;10389;-75
2022/10/10 10:41:13;;;;;;;;;20.25;19.50;;;;;;;;5078311;28;10932;-75
2022/10/10 10:44:04;;;;;;;;;17.50;17.25;;;;;;;;5078558;28;10073;-74
2022/10/10 10:46:56;;;;;;;;;21.25;20.00;;;;;;;;5069620;28;10178;-74
2022/10/10 10:49:26;;;;;;;;;25.25;22.75;;;;;;;;5077110;28;10313;-67
2022/10/10 10:52:12;;;;;;;;;19.25;19.25;;;;;;;;5078473;28;10293;-70
2022/10/10 10:54:55;;;;;;;;;22.75;21.75;;;;;;;;5073076;28;10108;-71
2022/10/10 10:57:36;;;;;;;;;20.75;20.50;;;;;;;;5071175;28;10153;-72
2022/10/10 11:00:05;;;;;;;;;20.25;19.50;;;;;;;;5069738;28;10119;-69
2022/10/10 11:02:42;;;;;;;;;26.50;20.00;;;;;;;;5070010;28;10045;-70
2022/10/10 11:05:19;;;;;;;;;24.25;19.75;;;;;;;;5070853;28;10029;-70
2022/10/10 11:08:00;;;;;;;;;19.50;18.75;;;;;;;;5070887;28;10168;-71
2022/10/10 13:25:57;;;;;;;;;19.25;15.50;;;;;;;;5103999;27;13266;-79
2022/10/10 13:28:23;;;;;;;;;16.25;14.50;;;;;;;;5107685;28;10207;-78
2022/10/10 13:30:49;;;;;;;;;17.75;14.25;;;;;;;;5106140;28;10072;-81
2022/10/10 13:33:16;;;;;;;;;15.25;13.50;;;;;;;;5104795;28;8808;-79
2022/10/10 13:35:42;;;;;;;;;10.75;10.75;;;;;;;;5125366;27;10594;-80
2022/10/10 13:38:10;;;;;;;;;10.25;10.25;;;;;;;;5125454;27;9502;-74
2022/10/10 13:40:35;;;;;;;;;9.25;9.25;;;;;;;;5096771;22;9589;-79
2022/10/10 13:43:00;;;;;;;;;13.00;10.00;;;;;;;;5067363;28;9806;-74
2022/10/10 13:45:46;;;;;;;;;14.50;13.00;;;;;;;;5063896;28;9653;-70
2022/10/10 13:48:17;;;;;;;;;10.67;10.00;;;;;;;;5067079;28;8836;-77
2022/10/10 13:50:42;;;;;;;;;13.00;11.75;;;;;;;;5067389;28;10177;-82
2022/10/10 13:53:23;;;;;;;;;27.50;25.00;;;;;;;;5065801;28;9684;-81
2022/10/10 13:55:48;;;;;;;;;25.75;22.50;;;;;;;;5065521;28;8817;-82
2022/10/10 13:58:15;;;;;;;;;26.25;24.00;;;;;;;;5055374;28;11010;-81
2022/10/10 14:00:40;;;;;;;;;27.50;21.00;;;;;;;;5058688;28;8840;-81
2022/10/10 14:03:13;;;;;;;;;20.25;20.00;;;;;;;;5059181;28;10063;-81
2022/10/10 14:05:41;;;;;;;;;18.50;16.25;;;;;;;;5061382;28;8918;-77
2022/10/10 14:08:13;;;;;;;;;19.25;18.50;;;;;;;;5066636;28;10058;-86
2022/10/10 14:10:38;;;;;;;;;23.00;19.50;;;;;;;;5067191;28;10120;-88
2022/10/10 14:13:03;;;;;;;;;18.50;18.25;;;;;;;;5067304;28;10814;-87
2022/10/10 14:15:29;;;;;;;;;15.25;14.00;;;;;;;;5064802;28;8851;-76
2022/10/10 14:17:54;;;;;;;;;17.00;16.00;;;;;;;;5066642;28;9531;-83
2022/10/10 14:20:19;;;;;;;;;16.00;15.00;;;;;;;;5065529;28;8837;-83
2022/10/10 14:22:45;;;;;;;;;20.25;18.50;;;;;;;;5066699;28;8858;-83
2022/10/10 14:25:10;;;;;;;;;18.50;15.00;;;;;;;;5064732;28;8882;-82
2022/10/10 14:27:35;;;;;;;;;18.25;18.25;;;;;;;;5071251;28;8813;-91
2022/10/10 14:30:00;;;;;;;;;19.75;19.00;;;;;;;;5072322;28;8825;-87
2022/10/10 14:32:26;;;;;;;;;22.50;19.50;;;;;;;;5071038;28;8797;-78
2022/10/10 14:34:51;;;;;;;;;20.25;19.75;;;;;;;;5062527;28;8833;-73
2022/10/10 14:37:16;;;;;;;;;17.75;15.75;;;;;;;;5051345;28;8817;-77
2022/10/10 14:39:42;;;;;;;;;20.75;18.25;;;;;;;;5075081;22;8914;-72
2022/10/10 14:42:10;;;;;;;;;18.75;18.75;;;;;;;;5051405;28;8817;-75
2022/10/10 14:44:35;;;;;;;;;21.25;19.00;;;;;;;;5048498;28;8857;-71
2022/10/10 14:47:00;;;;;;;;;20.50;17.75;;;;;;;;5052002;28;9883;-72
2022/10/10 14:49:25;;;;;;;;;14.75;13.50;;;;;;;;5051978;28;8809;-71
2022/10/10 14:51:51;;;;;;;;;14.50;14.50;;;;;;;;5051014;28;8817;-71
2022/10/10 14:54:16;;;;;;;;;14.75;14.75;;;;;;;;5049955;28;8959;-72
2022/10/10 14:56:42;;;;;;;;;12.00;12.00;;;;;;;;5051900;28;9654;-72
2022/10/10 14:59:18;;;;;;;;;12.25;12.25;;;;;;;;5051715;28;8886;-71
2022/10/10 15:01:44;;;;;;;;;11.50;11.25;;;;;;;;5051421;28;9781;-71
2022/10/10 15:04:09;;;;;;;;;10.25;8.75;;;;;;;;5048230;28;9619;-72
2022/10/10 15:06:34;;;;;;;;;13.25;11.50;;;;;;;;5050265;28;8811;-71
2022/10/10 15:09:00;;;;;;;;;14.75;14.25;;;;;;;;5051635;28;8813;-71
2022/10/10 15:11:25;;;;;;;;;17.75;17.75;;;;;;;;5051541;28;8816;-72
2022/10/10 15:13:50;;;;;;;;;16.50;13.00;;;;;;;;5049669;28;8825;-72
2022/10/10 15:16:15;;;;;;;;;14.00;12.50;;;;;;;;5050660;28;8796;-71
2022/10/10 15:18:41;;;;;;;;;10.25;10.25;;;;;;;;5050150;28;8809;-71
2022/10/10 15:21:07;;;;;;;;;13.75;12.00;;;;;;;;5050168;28;8802;-71
2022/10/10 15:23:32;;;;;;;;;13.50;12.00;;;;;;;;5049470;28;8833;-72
2022/10/10 15:25:59;;;;;;;;;13.50;13.50;;;;;;;;5051242;28;9678;-70
2022/10/10 15:28:24;;;;;;;;;13.00;11.75;;;;;;;;5051449;28;8809;-70
2022/10/10 15:30:51;;;;;;;;;12.25;12.00;;;;;;;;5050946;28;9664;-71
2022/10/10 15:33:16;;;;;;;;;16.50;13.50;;;;;;;;5049742;28;9571;-71
2022/10/10 15:35:42;;;;;;;;;17.00;13.75;;;;;;;;5045480;28;9727;-74
2022/10/10 15:38:07;;;;;;;;;17.50;16.25;;;;;;;;5051148;28;8817;-71
2022/10/10 15:40:32;;;;;;;;;14.25;14.00;;;;;;;;5051642;28;9837;-72
2022/10/10 15:42:58;;;;;;;;;13.00;13.00;;;;;;;;5051142;28;8817;-72
2022/10/10 15:45:23;;;;;;;;;20.50;16.50;;;;;;;;5046873;28;8885;-73
2022/10/10 15:47:48;;;;;;;;;15.25;13.25;;;;;;;;5049067;28;8975;-77
2022/10/10 15:50:14;;;;;;;;;19.25;15.00;;;;;;;;5049634;28;8829;-74
2022/10/10 15:52:40;;;;;;;;;7.50;7.25;;;;;;;;5050925;28;8797;-72
2022/10/10 15:55:11;;;;;;;;;16.50;14.00;;;;;;;;5048363;28;8880;-71
2022/10/10 15:57:36;;;;;;;;;14.50;14.00;;;;;;;;5050182;28;8797;-72
2022/10/10 16:00:02;;;;;;;;;15.00;13.75;;;;;;;;5049902;28;9884;-72
2022/10/10 16:02:28;;;;;;;;;19.75;17.75;;;;;;;;5050090;28;8784;-71
2022/10/10 16:04:53;;;;;;;;;12.00;12.00;;;;;;;;5047849;28;9928;-72
2022/10/10 16:07:19;;;;;;;;;12.50;11.75;;;;;;;;5050206;28;9165;-72
2022/10/10 16:09:44;;;;;;;;;11.00;11.00;;;;;;;;5050320;28;8848;-71
2022/10/10 16:12:10;;;;;;;;;13.75;13.50;;;;;;;;5050258;28;8965;-71
2022/10/10 16:14:35;;;;;;;;;17.25;14.50;;;;;;;;5048570;28;8822;-71
2022/10/10 16:17:00;;;;;;;;;20.25;18.75;;;;;;;;5049763;28;9565;-72
2022/10/10 16:19:25;;;;;;;;;17.00;15.25;;;;;;;;5049858;28;8773;-72
2022/10/10 16:21:51;;;;;;;;;17.50;13.50;;;;;;;;5049484;28;8794;-71
2022/10/10 16:24:16;;;;;;;;;19.50;14.25;;;;;;;;5046137;28;8953;-72
2022/10/10 16:26:41;;;;;;;;;16.25;16.25;;;;;;;;5049730;28;8805;-73
2022/10/10 16:29:08;;;;;;;;;14.50;13.25;;;;;;;;5049349;28;8966;-75
2022/10/10 16:31:38;;;;;;;;;18.75;17.25;;;;;;;;5048951;28;8824;-74
2022/10/10 16:34:03;;;;;;;;;14.00;13.00;;;;;;;;5045725;28;10999;-75
2022/10/10 16:36:30;;;;;;;;;13.00;13.00;;;;;;;;5048616;28;10238;-73
2022/10/10 16:38:56;;;;;;;;;14.25;14.25;;;;;;;;5049315;28;8766;-73
2022/10/10 16:41:23;;;;;;;;;16.75;15.00;;;;;;;;5047519;28;10369;-74
2022/10/10 16:43:49;;;;;;;;;17.00;15.00;;;;;;;;5045862;28;10192;-74
2022/10/10 16:46:16;;;;;;;;;14.00;14.00;;;;;;;;5048497;28;10128;-74
2022/10/10 16:48:42;;;;;;;;;13.00;12.75;;;;;;;;5049144;28;8789;-74
2022/10/10 16:51:09;;;;;;;;;19.00;16.00;;;;;;;;5047537;28;10078;-73
2022/10/10 16:53:34;;;;;;;;;18.25;15.25;;;;;;;;5047492;28;8841;-73
2022/10/10 16:56:01;;;;;;;;;14.25;13.75;;;;;;;;5049035;28;9989;-77
2022/10/10 16:58:26;;;;;;;;;12.75;11.50;;;;;;;;5049092;28;8993;-74
2022/10/10 17:00:52;;;;;;;;;17.25;17.00;;;;;;;;5048915;28;10049;-77
2022/10/10 17:03:17;;;;;;;;;21.50;18.75;;;;;;;;5045659;28;8922;-76
2022/10/10 17:05:43;;;;;;;;;18.25;17.00;;;;;;;;5048629;28;8853;-78
2022/10/10 17:08:08;;;;;;;;;18.25;18.25;;;;;;;;5049053;28;8817;-78
2022/10/10 17:10:34;;;;;;;;;17.25;17.00;;;;;;;;5047655;28;8853;-77
2022/10/10 17:12:59;;;;;;;;;31.25;27.50;;;;;;;;5049041;28;9045;-75
2022/10/10 17:15:25;;;;;;;;;24.00;24.00;;;;;;;;5041078;28;8841;-78
2022/10/10 17:17:50;;;;;;;;;33.00;25.25;;;;;;;;5045608;28;8797;-76
2022/10/10 17:20:15;;;;;;;;;26.75;22.50;;;;;;;;5047385;28;8833;-73
2022/10/10 17:22:41;;;;;;;;;22.25;21.75;;;;;;;;5048806;28;8933;-76
2022/10/10 17:25:06;;;;;;;;;27.25;23.50;;;;;;;;5046564;28;8964;-79
2022/10/10 17:27:33;;;;;;;;;22.25;21.75;;;;;;;;5048703;28;8789;-76
2022/10/10 17:29:59;;;;;;;;;26.00;25.25;;;;;;;;5048387;28;8878;-73
2022/10/10 17:32:25;;;;;;;;;36.50;32.00;;;;;;;;5048510;28;11138;-75
2022/10/10 17:34:52;;;;;;;;;25.50;24.00;;;;;;;;5046086;28;8829;-74
2022/10/10 17:37:18;;;;;;;;;23.50;22.75;;;;;;;;5048491;28;10772;-73
2022/10/10 17:39:43;;;;;;;;;23.00;20.75;;;;;;;;5048573;28;10694;-74
2022/10/10 17:42:08;;;;;;;;;23.00;21.50;;;;;;;;5046620;28;8906;-72
2022/10/10 17:44:33;;;;;;;;;22.75;20.00;;;;;;;;5045811;28;8987;-75
2022/10/10 17:46:59;;;;;;;;;29.50;25.50;;;;;;;;5048124;28;8841;-74
2022/10/10 17:49:24;;;;;;;;;27.25;22.25;;;;;;;;5048069;28;8955;-73
2022/10/10 17:51:49;;;;;;;;;25.75;22.00;;;;;;;;5048552;28;8805;-73
2022/10/10 17:54:15;;;;;;;;;16.50;16.50;;;;;;;;5046513;28;8825;-81
2022/10/10 17:56:43;;;;;;;;;16.75;15.25;;;;;;;;5047886;28;8802;-76
2022/10/10 17:59:09;;;;;;;;;15.75;14.75;;;;;;;;5047209;28;8939;-77
2022/10/10 18:01:34;;;;;;;;;19.00;19.00;;;;;;;;5047445;28;11149;-80
2022/10/10 18:04:00;;;;;;;;;21.00;21.00;;;;;;;;5046220;28;8853;-75
2022/10/10 18:06:27;;;;;;;;;25.25;22.00;;;;;;;;5046157;28;9711;-72
2022/10/10 18:08:53;;;;;;;;;23.50;21.25;;;;;;;;5047891;28;10636;-72
2022/10/10 18:11:19;;;;;;;;;26.75;22.75;;;;;;;;5049120;28;10633;-71
2022/10/10 18:13:45;;;;;;;;;21.50;19.25;;;;;;;;5049959;28;8817;-71
2022/10/10 18:16:12;;;;;;;;;23.50;20.50;;;;;;;;5050806;28;10793;-71
2022/10/10 18:18:38;;;;;;;;;31.75;28.00;;;;;;;;5051813;28;8806;-70
2022/10/10 18:21:04;;;;;;;;;30.50;28.75;;;;;;;;5051773;28;11095;-70
2022/10/10 18:23:30;;;;;;;;;25.00;22.75;;;;;;;;5049672;28;11291;-70
2022/10/10 18:26:03;;;;;;;;;24.50;22.00;;;;;;;;5050887;28;11021;-71
2022/10/10 18:28:31;;;;;;;;;28.50;24.50;;;;;;;;5043303;28;8795;-67
2022/10/10 18:30:57;;;;;;;;;25.75;23.25;;;;;;;;5040127;28;10896;-68
2022/10/10 18:33:22;;;;;;;;;29.00;24.50;;;;;;;;5040843;28;11026;-70
2022/10/10 18:35:47;;;;;;;;;26.50;25.00;;;;;;;;5039051;28;8811;-71
2022/10/10 18:38:13;;;;;;;;;24.25;23.00;;;;;;;;5040176;28;8792;-68
2022/10/10 18:40:38;;;;;;;;;27.75;26.00;;;;;;;;5042071;28;8910;-70
2022/10/10 18:43:03;;;;;;;;;26.00;25.00;;;;;;;;5039753;28;8833;-70
2022/10/10 18:45:28;;;;;;;;;30.00;25.25;;;;;;;;5040460;28;8910;-71
2022/10/10 18:47:54;;;;;;;;;32.00;26.75;;;;;;;;5041041;28;9515;-71
2022/10/10 18:50:19;;;;;;;;;29.00;26.75;;;;;;;;5040096;28;8788;-69
2022/10/10 18:52:46;;;;;;;;;32.25;30.00;;;;;;;;5040797;28;8836;-70
2022/10/10 18:55:13;;;;;;;;;29.50;25.50;;;;;;;;5038145;28;8946;-70
2022/10/10 18:57:38;;;;;;;;;31.00;29.00;;;;;;;;5038977;28;10884;-68
2022/10/10 19:00:04;;;;;;;;;30.75;28.00;;;;;;;;5040982;28;11116;-69
2022/10/10 19:02:29;;;;;;;;;32.75;29.00;;;;;;;;5039159;28;8817;-69
2022/10/10 19:04:54;;;;;;;;;20.00;17.25;;;;;;;;5040261;28;8898;-68
2022/10/10 19:07:19;;;;;;;;;25.00;23.25;;;;;;;;5039426;28;9619;-71
2022/10/10 19:09:45;;;;;;;;;28.25;24.75;;;;;;;;5038415;28;8790;-72
2022/10/10 19:12:10;;;;;;;;;27.00;26.50;;;;;;;;5039909;28;8796;-71
2022/10/10 19:14:36;;;;;;;;;34.25;29.25;;;;;;;;5040505;28;9576;-70
2022/10/10 19:17:01;;;;;;;;;27.25;23.75;;;;;;;;5041050;28;8800;-70
2022/10/10 19:19:28;;;;;;;;;23.00;19.75;;;;;;;;5037951;28;8906;-70
2022/10/10 19:21:53;;;;;;;;;20.75;19.25;;;;;;;;5038298;28;8949;-70
2022/10/10 19:24:21;;;;;;;;;26.00;23.00;;;;;;;;5039988;28;11030;-70
2022/10/10 19:26:51;;;;;;;;;23.25;21.00;;;;;;;;5040075;28;8811;-71
2022/10/10 19:29:17;;;;;;;;;22.25;20.50;;;;;;;;5038162;28;10856;-72
2022/10/10 19:31:42;;;;;;;;;24.00;23.50;;;;;;;;5037864;28;10864;-71
2022/10/10 19:34:07;;;;;;;;;34.00;31.00;;;;;;;;5037260;28;8843;-69
2022/10/10 19:36:33;;;;;;;;;36.50;33.00;;;;;;;;5038095;28;8877;-69
2022/10/10 19:38:58;;;;;;;;;45.25;37.00;;;;;;;;5038330;28;8906;-70
2022/10/10 19:41:24;;;;;;;;;25.00;24.00;;;;;;;;5038514;28;8826;-69
2022/10/10 19:43:51;;;;;;;;;26.75;25.50;;;;;;;;5039531;28;8933;-70
2022/10/10 19:46:17;;;;;;;;;23.75;22.75;;;;;;;;5037977;28;8871;-69
2022/10/10 19:48:43;;;;;;;;;25.50;25.25;;;;;;;;5037118;28;11083;-69
2022/10/10 19:51:10;;;;;;;;;24.00;20.00;;;;;;;;5038247;28;11109;-68
2022/10/10 19:53:36;;;;;;;;;27.00;26.50;;;;;;;;5038988;28;8793;-69
2022/10/10 19:56:03;;;;;;;;;26.00;26.00;;;;;;;;5038471;28;11068;-70
2022/10/10 19:58:29;;;;;;;;;25.00;23.25;;;;;;;;5035862;28;11596;-71
2022/10/10 20:00:54;;;;;;;;;28.25;26.75;;;;;;;;5037478;28;11308;-70
2022/10/10 20:03:19;;;;;;;;;26.75;22.50;;;;;;;;5038049;28;8828;-69
2022/10/10 20:05:45;;;;;;;;;24.00;22.75;;;;;;;;5037821;28;8817;-69
2022/10/10 20:08:10;;;;;;;;;24.25;22.00;;;;;;;;5039338;28;8805;-71
2022/10/10 20:10:38;;;;;;;;;23.25;23.00;;;;;;;;5039184;28;8789;-70
2022/10/10 20:13:03;;;;;;;;;35.25;32.50;;;;;;;;5038321;28;8938;-69
2022/10/10 20:15:28;;;;;;;;;21.75;21.00;;;;;;;;5036955;28;11505;-70
2022/10/10 20:17:54;;;;;;;;;30.75;28.25;;;;;;;;5037921;28;8849;-69
2022/10/10 20:20:19;;;;;;;;;23.75;23.50;;;;;;;;5038731;28;8815;-70
2022/10/10 20:22:44;;;;;;;;;28.50;26.00;;;;;;;;5037648;28;8817;-70
2022/10/10 20:25:10;;;;;;;;;29.50;25.50;;;;;;;;5037925;28;8833;-70
2022/10/10 20:27:36;;;;;;;;;28.50;25.00;;;;;;;;5037759;28;8808;-70
2022/10/10 20:30:01;;;;;;;;;25.50;24.50;;;;;;;;5038533;28;8804;-70
2022/10/10 20:32:27;;;;;;;;;27.25;23.75;;;;;;;;5040156;28;8815;-69
2022/10/10 20:34:52;;;;;;;;;28.25;24.75;;;;;;;;5036511;28;8906;-70
2022/10/10 20:37:17;;;;;;;;;30.00;26.50;;;;;;;;5038620;28;8793;-69
2022/10/10 20:39:42;;;;;;;;;26.50;25.00;;;;;;;;5038067;28;9021;-69
2022/10/10 20:42:08;;;;;;;;;26.50;22.50;;;;;;;;5037624;28;8804;-69
2022/10/10 20:44:33;;;;;;;;;22.75;22.25;;;;;;;;5035094;28;8862;-70
2022/10/10 20:46:58;;;;;;;;;22.50;22.50;;;;;;;;5038288;28;8886;-70
2022/10/10 20:49:23;;;;;;;;;28.25;25.50;;;;;;;;5037989;28;8841;-69
2022/10/10 20:51:50;;;;;;;;;29.25;25.50;;;;;;;;5036611;28;8806;-70
2022/10/10 20:54:20;;;;;;;;;24.25;21.75;;;;;;;;5038441;28;8809;-71
2022/10/10 20:56:45;;;;;;;;;24.50;23.00;;;;;;;;5037962;28;11109;-71
2022/10/10 20:59:11;;;;;;;;;26.75;26.75;;;;;;;;5034898;28;11284;-70
2022/10/10 21:01:37;;;;;;;;;21.50;21.00;;;;;;;;5039221;28;8869;-68
2022/10/10 21:04:02;;;;;;;;;27.50;21.25;;;;;;;;5036971;28;8793;-66
2022/10/10 21:06:30;;;;;;;;;23.00;22.25;;;;;;;;5038282;28;8941;-67
2022/10/10 21:08:57;;;;;;;;;30.50;26.00;;;;;;;;5036248;28;8807;-68
2022/10/10 21:11:22;;;;;;;;;22.50;22.00;;;;;;;;5035203;28;11077;-68
2022/10/10 21:13:50;;;;;;;;;26.00;22.50;;;;;;;;5037366;28;11079;-68
2022/10/10 21:16:16;;;;;;;;;24.75;24.25;;;;;;;;5035347;28;8869;-67
2022/10/10 21:18:42;;;;;;;;;21.25;20.25;;;;;;;;5036052;28;11090;-68
2022/10/10 21:21:09;;;;;;;;;24.50;23.50;;;;;;;;5037180;28;8812;-67
2022/10/10 21:23:35;;;;;;;;;25.00;22.75;;;;;;;;5034952;28;11462;-67
2022/10/10 21:26:12;;;;;;;;;22.00;21.00;;;;;;;;5035694;28;11295;-67
2022/10/10 21:28:37;;;;;;;;;21.75;20.00;;;;;;;;5036612;28;11172;-67
2022/10/10 21:31:03;;;;;;;;;22.50;22.00;;;;;;;;5038763;28;11256;-66
2022/10/10 21:33:28;;;;;;;;;22.25;21.25;;;;;;;;5036690;28;9544;-68
2022/10/10 21:35:55;;;;;;;;;24.75;23.75;;;;;;;;5038012;28;8817;-68
2022/10/10 21:38:20;;;;;;;;;24.50;22.50;;;;;;;;5035413;28;8836;-67
2022/10/10 21:40:45;;;;;;;;;28.50;22.50;;;;;;;;5036112;28;11542;-67
2022/10/10 21:43:11;;;;;;;;;23.00;20.75;;;;;;;;5038841;28;8809;-68
2022/10/10 21:45:37;;;;;;;;;23.75;22.50;;;;;;;;5035482;28;8847;-67
2022/10/10 21:48:03;;;;;;;;;20.75;18.50;;;;;;;;5043176;28;8913;-67
2022/10/10 21:50:28;;;;;;;;;23.25;22.25;;;;;;;;5040428;28;8805;-67
2022/10/10 21:52:53;;;;;;;;;27.00;23.25;;;;;;;;5042215;28;8809;-67
2022/10/10 21:55:19;;;;;;;;;28.75;24.25;;;;;;;;5039455;28;8914;-67
2022/10/10 21:57:44;;;;;;;;;23.25;23.00;;;;;;;;5040488;28;8833;-67
2022/10/10 22:00:10;;;;;;;;;25.00;22.00;;;;;;;;5041934;28;9050;-67
2022/10/10 22:02:37;;;;;;;;;24.50;21.00;;;;;;;;5040086;28;8803;-67
2022/10/10 22:05:03;;;;;;;;;27.00;23.75;;;;;;;;5040647;28;8802;-67
